RYR11EX LGAV-LGSR
Flight info
| Callsign | RYR11EX |
|---|---|
| Flight time | 0h 32m |
| Altitude | 13000 |
| Route | KEA UL607 NETIS M601 PEXAN |
| Aircraft | B738/M-SADE3FGHIJ1J7LP2RWXY/SB1D1G1 |
Departure
| Time | 2026-05-08 19:56 |
|---|---|
| Airport | Athens Eleftherios Venizelos International Airport (LGAV) |
Arrival
| Time | 2026-05-08 20:28 |
|---|---|
| Airport | Santorini International Airport (LGSR) |
| Time | Latitude | Longitude | Altitude | Speed | Heading |
|---|---|---|---|---|---|
| 2026-05-08 19:24 | 37.92990 | 23.94372 | 302 ft | 0 kts | 37° |
| 2026-05-08 19:44 | 37.92986 | 23.94367 | 300 ft | 3 kts | 37° |
| 2026-05-08 19:44 | 37.92971 | 23.94353 | 300 ft | 3 kts | 37° |
| 2026-05-08 19:44 | 37.92956 | 23.94339 | 300 ft | 3 kts | 37° |
| 2026-05-08 19:45 | 37.92941 | 23.94325 | 299 ft | 3 kts | 37° |
| 2026-05-08 19:45 | 37.92927 | 23.94311 | 300 ft | 3 kts | 37° |
| 2026-05-08 19:45 | 37.92912 | 23.94297 | 300 ft | 3 kts | 37° |
| 2026-05-08 19:45 | 37.92905 | 23.94290 | 301 ft | 0 kts | 37° |
| 2026-05-08 19:46 | 37.92909 | 23.94298 | 298 ft | 2 kts | 65° |
| 2026-05-08 19:47 | 37.92898 | 23.94332 | 301 ft | 6 kts | 126° |
| 2026-05-08 19:47 | 37.92864 | 23.94386 | 303 ft | 9 kts | 127° |
| 2026-05-08 19:47 | 37.92828 | 23.94451 | 301 ft | 9 kts | 111° |
| 2026-05-08 19:47 | 37.92851 | 23.94522 | 302 ft | 10 kts | 41° |
| 2026-05-08 19:48 | 37.92911 | 23.94582 | 301 ft | 12 kts | 36° |
| 2026-05-08 19:48 | 37.92991 | 23.94656 | 301 ft | 16 kts | 36° |
| 2026-05-08 19:48 | 37.93090 | 23.94751 | 300 ft | 20 kts | 37° |
| 2026-05-08 19:48 | 37.93207 | 23.94862 | 302 ft | 22 kts | 37° |
| 2026-05-08 19:49 | 37.93330 | 23.94979 | 298 ft | 22 kts | 37° |
| 2026-05-08 19:49 | 37.93451 | 23.95094 | 299 ft | 21 kts | 37° |
| 2026-05-08 19:49 | 37.93569 | 23.95205 | 300 ft | 21 kts | 37° |
| 2026-05-08 19:49 | 37.93683 | 23.95313 | 296 ft | 20 kts | 36° |
| 2026-05-08 19:50 | 37.93794 | 23.95418 | 298 ft | 20 kts | 37° |
| 2026-05-08 19:50 | 37.93901 | 23.95520 | 295 ft | 19 kts | 37° |
| 2026-05-08 19:50 | 37.94005 | 23.95618 | 297 ft | 18 kts | 37° |
| 2026-05-08 19:50 | 37.94105 | 23.95713 | 298 ft | 18 kts | 37° |
| 2026-05-08 19:51 | 37.94202 | 23.95806 | 297 ft | 17 kts | 37° |
| 2026-05-08 19:51 | 37.94296 | 23.95895 | 300 ft | 17 kts | 37° |
| 2026-05-08 19:51 | 37.94387 | 23.95980 | 297 ft | 16 kts | 36° |
| 2026-05-08 19:51 | 37.94476 | 23.96066 | 300 ft | 16 kts | 37° |
| 2026-05-08 19:52 | 37.94564 | 23.96149 | 301 ft | 15 kts | 37° |
| 2026-05-08 19:52 | 37.94649 | 23.96228 | 298 ft | 15 kts | 37° |
| 2026-05-08 19:52 | 37.94729 | 23.96305 | 301 ft | 14 kts | 37° |
| 2026-05-08 19:52 | 37.94808 | 23.96380 | 299 ft | 15 kts | 37° |
| 2026-05-08 19:53 | 37.94901 | 23.96468 | 301 ft | 19 kts | 36° |
| 2026-05-08 19:53 | 37.95012 | 23.96572 | 304 ft | 20 kts | 36° |
| 2026-05-08 19:53 | 37.95122 | 23.96675 | 301 ft | 19 kts | 36° |
| 2026-05-08 19:53 | 37.95228 | 23.96777 | 303 ft | 19 kts | 40° |
| 2026-05-08 19:54 | 37.95326 | 23.96872 | 302 ft | 16 kts | 36° |
| 2026-05-08 19:54 | 37.95388 | 23.96955 | 302 ft | 10 kts | 81° |
| 2026-05-08 19:54 | 37.95355 | 23.97014 | 304 ft | 9 kts | 159° |
| 2026-05-08 19:54 | 37.95297 | 23.97028 | 309 ft | 8 kts | 171° |
| 2026-05-08 19:55 | 37.95240 | 23.97040 | 309 ft | 8 kts | 171° |
| 2026-05-08 19:55 | 37.95185 | 23.97018 | 308 ft | 9 kts | 217° |
| 2026-05-08 19:55 | 37.95111 | 23.96947 | 309 ft | 28 kts | 217° |
| 2026-05-08 19:55 | 37.94753 | 23.96606 | 299 ft | 99 kts | 217° |
| 2026-05-08 19:56 | 37.94036 | 23.95926 | 285 ft | 156 kts | 216° |
| 2026-05-08 19:56 | 37.93112 | 23.95098 | 832 ft | 159 kts | 216° |
| 2026-05-08 19:56 | 37.92241 | 23.94298 | 1703 ft | 152 kts | 219° |
| 2026-05-08 19:56 | 37.91341 | 23.93641 | 2426 ft | 154 kts | 195° |
| 2026-05-08 19:57 | 37.90349 | 23.93182 | 3144 ft | 149 kts | 215° |
| 2026-05-08 19:57 | 37.89441 | 23.92519 | 3795 ft | 157 kts | 212° |
| 2026-05-08 19:57 | 37.88385 | 23.91786 | 4057 ft | 187 kts | 211° |
| 2026-05-08 19:57 | 37.87193 | 23.90969 | 4410 ft | 202 kts | 211° |
| 2026-05-08 19:58 | 37.85871 | 23.90066 | 4572 ft | 230 kts | 211° |
| 2026-05-08 19:58 | 37.84433 | 23.89090 | 5225 ft | 236 kts | 211° |
| 2026-05-08 19:58 | 37.82981 | 23.88109 | 6058 ft | 237 kts | 211° |
| 2026-05-08 19:58 | 37.81519 | 23.87121 | 6839 ft | 239 kts | 212° |
| 2026-05-08 19:59 | 37.80043 | 23.86123 | 7589 ft | 241 kts | 212° |
| 2026-05-08 19:59 | 37.78451 | 23.85363 | 8265 ft | 254 kts | 193° |
| 2026-05-08 19:59 | 37.76649 | 23.85417 | 8994 ft | 266 kts | 175° |
| 2026-05-08 19:59 | 37.74843 | 23.86206 | 9618 ft | 288 kts | 159° |
| 2026-05-08 20:00 | 37.73241 | 23.87883 | 10153 ft | 315 kts | 129° |
| 2026-05-08 20:00 | 37.72123 | 23.90346 | 10730 ft | 331 kts | 121° |
| 2026-05-08 20:00 | 37.71067 | 23.92984 | 11310 ft | 342 kts | 120° |
| 2026-05-08 20:00 | 37.69968 | 23.95710 | 11821 ft | 354 kts | 120° |
| 2026-05-08 20:01 | 37.68825 | 23.98500 | 12274 ft | 359 kts | 120° |
| 2026-05-08 20:01 | 37.67678 | 24.01275 | 12490 ft | 355 kts | 121° |
| 2026-05-08 20:01 | 37.66535 | 24.04021 | 12726 ft | 350 kts | 121° |
| 2026-05-08 20:01 | 37.65412 | 24.06711 | 12985 ft | 353 kts | 121° |
| 2026-05-08 20:02 | 37.64276 | 24.09429 | 13079 ft | 349 kts | 121° |
| 2026-05-08 20:02 | 37.63127 | 24.12178 | 13086 ft | 351 kts | 121° |
| 2026-05-08 20:02 | 37.62002 | 24.14866 | 13097 ft | 351 kts | 121° |
| 2026-05-08 20:02 | 37.60863 | 24.17589 | 13097 ft | 351 kts | 121° |
| 2026-05-08 20:03 | 37.59722 | 24.20316 | 13089 ft | 351 kts | 121° |
| 2026-05-08 20:03 | 37.58584 | 24.23035 | 13087 ft | 351 kts | 121° |
| 2026-05-08 20:03 | 37.57444 | 24.25752 | 13091 ft | 351 kts | 121° |
| 2026-05-08 20:03 | 37.56292 | 24.28457 | 13091 ft | 349 kts | 125° |
| 2026-05-08 20:04 | 37.54718 | 24.30710 | 13089 ft | 339 kts | 148° |
| 2026-05-08 20:04 | 37.52773 | 24.32351 | 13097 ft | 336 kts | 153° |
| 2026-05-08 20:04 | 37.50785 | 24.33899 | 13112 ft | 336 kts | 154° |
| 2026-05-08 20:04 | 37.48787 | 24.35428 | 13104 ft | 337 kts | 154° |
| 2026-05-08 20:05 | 37.46783 | 24.36964 | 13101 ft | 338 kts | 154° |
| 2026-05-08 20:05 | 37.44778 | 24.38509 | 13100 ft | 338 kts | 154° |
| 2026-05-08 20:05 | 37.42774 | 24.40064 | 13097 ft | 339 kts | 154° |
| 2026-05-08 20:05 | 37.40768 | 24.41627 | 13089 ft | 339 kts | 153° |
| 2026-05-08 20:06 | 37.38762 | 24.43193 | 13094 ft | 340 kts | 153° |
| 2026-05-08 20:06 | 37.36755 | 24.44762 | 13095 ft | 340 kts | 153° |
| 2026-05-08 20:06 | 37.34743 | 24.46336 | 13102 ft | 340 kts | 153° |
| 2026-05-08 20:06 | 37.32735 | 24.47907 | 13108 ft | 340 kts | 153° |
| 2026-05-08 20:07 | 37.30726 | 24.49477 | 13104 ft | 341 kts | 153° |
| 2026-05-08 20:07 | 37.28715 | 24.51050 | 13103 ft | 341 kts | 153° |
| 2026-05-08 20:07 | 37.26703 | 24.52621 | 13108 ft | 341 kts | 153° |
| 2026-05-08 20:07 | 37.24692 | 24.54191 | 13109 ft | 340 kts | 153° |
| 2026-05-08 20:08 | 37.22682 | 24.55759 | 13106 ft | 340 kts | 153° |
| 2026-05-08 20:08 | 37.20671 | 24.57327 | 13106 ft | 340 kts | 153° |
| 2026-05-08 20:08 | 37.18665 | 24.58891 | 13100 ft | 339 kts | 153° |
| 2026-05-08 20:08 | 37.16661 | 24.60452 | 13103 ft | 339 kts | 153° |
| 2026-05-08 20:09 | 37.14658 | 24.62010 | 13096 ft | 339 kts | 153° |
| 2026-05-08 20:09 | 37.12658 | 24.63566 | 13096 ft | 339 kts | 153° |
| 2026-05-08 20:09 | 37.10651 | 24.65125 | 13103 ft | 339 kts | 153° |
| 2026-05-08 20:09 | 37.08648 | 24.66681 | 13106 ft | 339 kts | 153° |
| 2026-05-08 20:10 | 37.06641 | 24.68239 | 13110 ft | 340 kts | 153° |
| 2026-05-08 20:10 | 37.04631 | 24.69798 | 13106 ft | 340 kts | 153° |
| 2026-05-08 20:10 | 37.02618 | 24.71359 | 13105 ft | 341 kts | 153° |
| 2026-05-08 20:10 | 37.00602 | 24.72921 | 13105 ft | 341 kts | 153° |
| 2026-05-08 20:11 | 36.98581 | 24.74487 | 13108 ft | 341 kts | 153° |
| 2026-05-08 20:11 | 36.96561 | 24.76051 | 13107 ft | 342 kts | 153° |
| 2026-05-08 20:11 | 36.94544 | 24.77611 | 13103 ft | 342 kts | 153° |
| 2026-05-08 20:11 | 36.92521 | 24.79174 | 13106 ft | 341 kts | 153° |
| 2026-05-08 20:12 | 36.90502 | 24.80735 | 13102 ft | 341 kts | 153° |
| 2026-05-08 20:12 | 36.88486 | 24.82297 | 13107 ft | 341 kts | 153° |
| 2026-05-08 20:12 | 36.86470 | 24.83857 | 13094 ft | 341 kts | 153° |
| 2026-05-08 20:12 | 36.84453 | 24.85418 | 13099 ft | 341 kts | 153° |
| 2026-05-08 20:13 | 36.82440 | 24.86974 | 13104 ft | 341 kts | 153° |
| 2026-05-08 20:13 | 36.80447 | 24.88514 | 13100 ft | 341 kts | 153° |
| 2026-05-08 20:13 | 36.78433 | 24.90071 | 13102 ft | 341 kts | 153° |
| 2026-05-08 20:13 | 36.76413 | 24.91630 | 13105 ft | 342 kts | 153° |
| 2026-05-08 20:14 | 36.74388 | 24.93191 | 13101 ft | 342 kts | 153° |
| 2026-05-08 20:14 | 36.72375 | 24.94765 | 12988 ft | 343 kts | 149° |
| 2026-05-08 20:14 | 36.70725 | 24.96926 | 12689 ft | 349 kts | 123° |
| 2026-05-08 20:14 | 36.69863 | 24.99723 | 12438 ft | 346 kts | 100° |
| 2026-05-08 20:15 | 36.69542 | 25.02666 | 12211 ft | 340 kts | 96° |
| 2026-05-08 20:15 | 36.69279 | 25.05577 | 11954 ft | 336 kts | 96° |
| 2026-05-08 20:15 | 36.69010 | 25.08451 | 11702 ft | 332 kts | 97° |
| 2026-05-08 20:15 | 36.68725 | 25.11294 | 11463 ft | 328 kts | 97° |
| 2026-05-08 20:16 | 36.68434 | 25.14100 | 11200 ft | 325 kts | 97° |
| 2026-05-08 20:16 | 36.68032 | 25.16846 | 10924 ft | 321 kts | 111° |
| 2026-05-08 20:16 | 36.66901 | 25.19183 | 10683 ft | 312 kts | 136° |
| 2026-05-08 20:16 | 36.65322 | 25.21000 | 10465 ft | 308 kts | 143° |
| 2026-05-08 20:17 | 36.63691 | 25.22719 | 10234 ft | 306 kts | 143° |
| 2026-05-08 20:17 | 36.62065 | 25.24411 | 10040 ft | 302 kts | 143° |
| 2026-05-08 20:17 | 36.60463 | 25.26082 | 9776 ft | 300 kts | 143° |
| 2026-05-08 20:17 | 36.58871 | 25.27751 | 9495 ft | 299 kts | 143° |
| 2026-05-08 20:18 | 36.57289 | 25.29417 | 9209 ft | 297 kts | 143° |
| 2026-05-08 20:18 | 36.56244 | 25.30521 | 9017 ft | 297 kts | 143° |
| 2026-05-08 20:18 | 36.54675 | 25.32181 | 8699 ft | 297 kts | 143° |
| 2026-05-08 20:18 | 36.53099 | 25.33850 | 8362 ft | 298 kts | 143° |
| 2026-05-08 20:19 | 36.51526 | 25.35516 | 8068 ft | 297 kts | 143° |
| 2026-05-08 20:19 | 36.49451 | 25.37715 | 7685 ft | 296 kts | 143° |
| 2026-05-08 20:19 | 36.48393 | 25.38837 | 7491 ft | 295 kts | 143° |
| 2026-05-08 20:19 | 36.46833 | 25.40490 | 7206 ft | 294 kts | 143° |
| 2026-05-08 20:20 | 36.44773 | 25.42671 | 6907 ft | 291 kts | 143° |
| 2026-05-08 20:20 | 36.43739 | 25.43767 | 6807 ft | 287 kts | 143° |
| 2026-05-08 20:20 | 36.42237 | 25.45355 | 6664 ft | 280 kts | 143° |
| 2026-05-08 20:20 | 36.40775 | 25.46901 | 6550 ft | 273 kts | 143° |
| 2026-05-08 20:21 | 36.39377 | 25.48444 | 6423 ft | 267 kts | 134° |
| 2026-05-08 20:21 | 36.38338 | 25.50321 | 6318 ft | 261 kts | 123° |
| 2026-05-08 20:21 | 36.37418 | 25.52236 | 6143 ft | 257 kts | 123° |
| 2026-05-08 20:21 | 36.36496 | 25.54124 | 5901 ft | 255 kts | 124° |
| 2026-05-08 20:22 | 36.35569 | 25.55989 | 5667 ft | 253 kts | 124° |
| 2026-05-08 20:22 | 36.34655 | 25.57810 | 5458 ft | 249 kts | 124° |
| 2026-05-08 20:22 | 36.33745 | 25.59611 | 5201 ft | 244 kts | 124° |
| 2026-05-08 20:22 | 36.32840 | 25.61400 | 4939 ft | 239 kts | 125° |
| 2026-05-08 20:23 | 36.31922 | 25.63050 | 4666 ft | 232 kts | 138° |
| 2026-05-08 20:23 | 36.30585 | 25.63994 | 4413 ft | 216 kts | 172° |
| 2026-05-08 20:23 | 36.29148 | 25.63978 | 4200 ft | 201 kts | 197° |
| 2026-05-08 20:23 | 36.27929 | 25.63274 | 3998 ft | 189 kts | 220° |
| 2026-05-08 20:24 | 36.27084 | 25.62084 | 3769 ft | 182 kts | 242° |
| 2026-05-08 20:24 | 36.26704 | 25.60632 | 3565 ft | 176 kts | 263° |
| 2026-05-08 20:24 | 36.26809 | 25.59152 | 3367 ft | 173 kts | 285° |
| 2026-05-08 20:24 | 36.27309 | 25.57808 | 3177 ft | 170 kts | 301° |
| 2026-05-08 20:25 | 36.28052 | 25.56692 | 2977 ft | 168 kts | 309° |
| 2026-05-08 20:25 | 36.29008 | 25.55847 | 2768 ft | 168 kts | 329° |
| 2026-05-08 20:25 | 36.30023 | 25.55157 | 2493 ft | 162 kts | 328° |
| 2026-05-08 20:25 | 36.30999 | 25.54476 | 2286 ft | 164 kts | 328° |
| 2026-05-08 20:26 | 36.31987 | 25.53775 | 2017 ft | 163 kts | 328° |
| 2026-05-08 20:26 | 36.32961 | 25.53073 | 1768 ft | 161 kts | 328° |
| 2026-05-08 20:26 | 36.33922 | 25.52371 | 1540 ft | 159 kts | 327° |
| 2026-05-08 20:26 | 36.34865 | 25.51647 | 1288 ft | 159 kts | 324° |
| 2026-05-08 20:27 | 36.35761 | 25.50838 | 1010 ft | 160 kts | 321° |
| 2026-05-08 20:27 | 36.36623 | 25.49954 | 715 ft | 161 kts | 319° |
| 2026-05-08 20:27 | 36.37490 | 25.49115 | 461 ft | 156 kts | 330° |
| 2026-05-08 20:27 | 36.38476 | 25.48594 | 207 ft | 151 kts | 340° |
| 2026-05-08 20:28 | 36.39449 | 25.48136 | 64 ft | 145 kts | 340° |
| 2026-05-08 20:28 | 36.40202 | 25.47782 | 92 ft | 85 kts | 339° |
| 2026-05-08 20:28 | 36.40559 | 25.47613 | 90 ft | 22 kts | 338° |
| 2026-05-08 20:28 | 36.40693 | 25.47549 | 91 ft | 20 kts | 339° |
| 2026-05-08 20:29 | 36.40805 | 25.47496 | 92 ft | 12 kts | 340° |
| 2026-05-08 20:29 | 36.40849 | 25.47441 | 92 ft | 9 kts | 267° |
| 2026-05-08 20:29 | 36.40829 | 25.47368 | 91 ft | 9 kts | 249° |
| 2026-05-08 20:29 | 36.40784 | 25.47338 | 90 ft | 8 kts | 166° |
| 2026-05-08 20:30 | 36.40730 | 25.47363 | 93 ft | 8 kts | 159° |
| 2026-05-08 20:30 | 36.40674 | 25.47391 | 90 ft | 10 kts | 158° |
| 2026-05-08 20:30 | 36.40596 | 25.47427 | 90 ft | 13 kts | 159° |
| 2026-05-08 20:30 | 36.40507 | 25.47469 | 91 ft | 14 kts | 159° |
| 2026-05-08 20:31 | 36.40434 | 25.47488 | 91 ft | 10 kts | 208° |
| 2026-05-08 20:31 | 36.40403 | 25.47426 | 90 ft | 7 kts | 238° |
| 2026-05-08 20:31 | 36.40385 | 25.47374 | 91 ft | 5 kts | 249° |
| 2026-05-08 20:31 | 36.40384 | 25.47370 | 90 ft | 0 kts | 249° |